sensor_id;sensor_type;location;lat;lon;timestamp;P1;durP1;ratioP1;P2;durP2;ratioP2
56005;SDS011;41888;44.696;10.522;2022-12-18T00:01:26;45.25;;;27.83;;
56005;SDS011;41888;44.696;10.522;2022-12-18T00:03:55;45.28;;;27.70;;
56005;SDS011;41888;44.696;10.522;2022-12-18T00:06:22;43.97;;;25.70;;
56005;SDS011;41888;44.696;10.522;2022-12-18T00:08:49;46.00;;;27.48;;
56005;SDS011;41888;44.696;10.522;2022-12-18T00:11:20;47.80;;;27.15;;
56005;SDS011;41888;44.696;10.522;2022-12-18T00:13:48;47.53;;;27.23;;
56005;SDS011;41888;44.696;10.522;2022-12-18T00:16:15;49.63;;;29.10;;
56005;SDS011;41888;44.696;10.522;2022-12-18T00:18:45;49.67;;;27.70;;
56005;SDS011;41888;44.696;10.522;2022-12-18T00:21:13;47.38;;;27.17;;
56005;SDS011;41888;44.696;10.522;2022-12-18T00:23:41;47.67;;;27.02;;
56005;SDS011;41888;44.696;10.522;2022-12-18T00:26:13;45.70;;;27.42;;
56005;SDS011;41888;44.696;10.522;2022-12-18T00:28:41;51.08;;;29.05;;
56005;SDS011;41888;44.696;10.522;2022-12-18T00:31:09;53.65;;;28.70;;
56005;SDS011;41888;44.696;10.522;2022-12-18T00:33:37;45.83;;;27.15;;
56005;SDS011;41888;44.696;10.522;2022-12-18T00:36:07;48.45;;;27.33;;
56005;SDS011;41888;44.696;10.522;2022-12-18T00:38:36;45.80;;;25.75;;
56005;SDS011;41888;44.696;10.522;2022-12-18T00:41:02;41.83;;;25.80;;
56005;SDS011;41888;44.696;10.522;2022-12-18T00:43:28;49.63;;;27.50;;
56005;SDS011;41888;44.696;10.522;2022-12-18T00:45:55;41.00;;;25.02;;
56005;SDS011;41888;44.696;10.522;2022-12-18T00:48:21;40.85;;;25.23;;
56005;SDS011;41888;44.696;10.522;2022-12-18T00:50:48;43.28;;;27.15;;
56005;SDS011;41888;44.696;10.522;2022-12-18T00:53:15;50.53;;;27.38;;
56005;SDS011;41888;44.696;10.522;2022-12-18T00:55:42;45.53;;;26.83;;
56005;SDS011;41888;44.696;10.522;2022-12-18T00:58:09;46.47;;;25.65;;
56005;SDS011;41888;44.696;10.522;2022-12-18T01:00:36;45.83;;;26.05;;
56005;SDS011;41888;44.696;10.522;2022-12-18T01:03:03;46.50;;;26.65;;
56005;SDS011;41888;44.696;10.522;2022-12-18T01:05:30;50.95;;;28.40;;
56005;SDS011;41888;44.696;10.522;2022-12-18T01:07:57;47.50;;;28.25;;
56005;SDS011;41888;44.696;10.522;2022-12-18T01:10:23;45.88;;;28.65;;
56005;SDS011;41888;44.696;10.522;2022-12-18T01:12:51;44.42;;;25.92;;
56005;SDS011;41888;44.696;10.522;2022-12-18T01:15:18;52.35;;;28.35;;
56005;SDS011;41888;44.696;10.522;2022-12-18T01:17:44;51.00;;;28.27;;
56005;SDS011;41888;44.696;10.522;2022-12-18T01:20:11;49.15;;;28.48;;
56005;SDS011;41888;44.696;10.522;2022-12-18T01:22:38;47.28;;;26.85;;
56005;SDS011;41888;44.696;10.522;2022-12-18T01:25:04;47.20;;;27.25;;
56005;SDS011;41888;44.696;10.522;2022-12-18T01:27:31;49.58;;;28.08;;
56005;SDS011;41888;44.696;10.522;2022-12-18T01:29:58;48.53;;;27.23;;
56005;SDS011;41888;44.696;10.522;2022-12-18T01:32:24;49.30;;;25.63;;
56005;SDS011;41888;44.696;10.522;2022-12-18T01:34:50;48.72;;;27.45;;
56005;SDS011;41888;44.696;10.522;2022-12-18T01:37:17;45.97;;;26.77;;
56005;SDS011;41888;44.696;10.522;2022-12-18T01:39:44;49.53;;;30.33;;
56005;SDS011;41888;44.696;10.522;2022-12-18T01:42:13;54.17;;;29.90;;
56005;SDS011;41888;44.696;10.522;2022-12-18T01:45:00;51.80;;;30.42;;
56005;SDS011;41888;44.696;10.522;2022-12-18T01:47:40;48.35;;;28.45;;
56005;SDS011;41888;44.696;10.522;2022-12-18T01:50:25;54.50;;;30.10;;
56005;SDS011;41888;44.696;10.522;2022-12-18T01:53:09;50.35;;;28.95;;
56005;SDS011;41888;44.696;10.522;2022-12-18T01:55:57;49.58;;;28.42;;
56005;SDS011;41888;44.696;10.522;2022-12-18T01:58:29;55.35;;;28.98;;
56005;SDS011;41888;44.696;10.522;2022-12-18T02:01:22;53.13;;;28.83;;
56005;SDS011;41888;44.696;10.522;2022-12-18T02:03:50;45.80;;;25.95;;
56005;SDS011;41888;44.696;10.522;2022-12-18T02:06:27;45.30;;;27.23;;
56005;SDS011;41888;44.696;10.522;2022-12-18T02:17:17;50.35;;;27.55;;
56005;SDS011;41888;44.696;10.522;2022-12-18T02:20:02;49.42;;;28.15;;
56005;SDS011;41888;44.696;10.522;2022-12-18T02:22:45;45.28;;;27.65;;
56005;SDS011;41888;44.696;10.522;2022-12-18T02:28:37;45.83;;;25.27;;
56005;SDS011;41888;44.696;10.522;2022-12-18T02:31:08;47.78;;;26.38;;
56005;SDS011;41888;44.696;10.522;2022-12-18T02:33:39;45.33;;;25.55;;
56005;SDS011;41888;44.696;10.522;2022-12-18T02:36:08;44.47;;;24.63;;
56005;SDS011;41888;44.696;10.522;2022-12-18T02:38:36;41.28;;;23.67;;
56005;SDS011;41888;44.696;10.522;2022-12-18T02:41:04;36.70;;;22.63;;
56005;SDS011;41888;44.696;10.522;2022-12-18T02:43:32;34.45;;;21.23;;
56005;SDS011;41888;44.696;10.522;2022-12-18T02:45:58;30.83;;;19.30;;
56005;SDS011;41888;44.696;10.522;2022-12-18T02:48:45;32.90;;;19.85;;
56005;SDS011;41888;44.696;10.522;2022-12-18T02:51:17;28.55;;;16.83;;
56005;SDS011;41888;44.696;10.522;2022-12-18T02:53:50;31.02;;;18.15;;
56005;SDS011;41888;44.696;10.522;2022-12-18T02:56:27;25.55;;;17.00;;
56005;SDS011;41888;44.696;10.522;2022-12-18T02:59:04;32.97;;;19.63;;
56005;SDS011;41888;44.696;10.522;2022-12-18T03:01:51;27.67;;;18.35;;
56005;SDS011;41888;44.696;10.522;2022-12-18T03:06:57;29.53;;;16.57;;
56005;SDS011;41888;44.696;10.522;2022-12-18T03:09:29;22.70;;;14.05;;
56005;SDS011;41888;44.696;10.522;2022-12-18T03:15:02;19.00;;;12.40;;
56005;SDS011;41888;44.696;10.522;2022-12-18T03:17:32;17.30;;;11.65;;
56005;SDS011;41888;44.696;10.522;2022-12-18T03:20:02;18.40;;;12.25;;
56005;SDS011;41888;44.696;10.522;2022-12-18T03:22:33;21.92;;;13.18;;
56005;SDS011;41888;44.696;10.522;2022-12-18T03:25:02;21.17;;;13.70;;
56005;SDS011;41888;44.696;10.522;2022-12-18T03:27:31;18.27;;;11.35;;
56005;SDS011;41888;44.696;10.522;2022-12-18T03:30:05;17.90;;;11.77;;
56005;SDS011;41888;44.696;10.522;2022-12-18T03:32:46;14.60;;;9.75;;
56005;SDS011;41888;44.696;10.522;2022-12-18T03:35:20;15.27;;;10.25;;
56005;SDS011;41888;44.696;10.522;2022-12-18T03:37:51;13.68;;;10.32;;
56005;SDS011;41888;44.696;10.522;2022-12-18T03:40:18;18.02;;;10.40;;
56005;SDS011;41888;44.696;10.522;2022-12-18T03:42:52;14.40;;;9.30;;
56005;SDS011;41888;44.696;10.522;2022-12-18T03:45:34;13.48;;;8.65;;
56005;SDS011;41888;44.696;10.522;2022-12-18T03:48:08;13.95;;;8.90;;
56005;SDS011;41888;44.696;10.522;2022-12-18T03:53:36;14.32;;;9.23;;
56005;SDS011;41888;44.696;10.522;2022-12-18T03:56:31;13.32;;;8.43;;
56005;SDS011;41888;44.696;10.522;2022-12-18T03:59:02;12.40;;;8.25;;
56005;SDS011;41888;44.696;10.522;2022-12-18T04:01:38;12.82;;;8.02;;
56005;SDS011;41888;44.696;10.522;2022-12-18T04:04:08;13.30;;;8.05;;
56005;SDS011;41888;44.696;10.522;2022-12-18T04:06:37;14.63;;;9.43;;
56005;SDS011;41888;44.696;10.522;2022-12-18T04:09:05;11.65;;;8.02;;
56005;SDS011;41888;44.696;10.522;2022-12-18T04:11:32;13.73;;;8.50;;
56005;SDS011;41888;44.696;10.522;2022-12-18T04:13:58;13.98;;;8.10;;
56005;SDS011;41888;44.696;10.522;2022-12-18T04:16:25;14.75;;;10.05;;
56005;SDS011;41888;44.696;10.522;2022-12-18T04:18:52;16.02;;;10.48;;
56005;SDS011;41888;44.696;10.522;2022-12-18T04:21:19;16.60;;;10.43;;
56005;SDS011;41888;44.696;10.522;2022-12-18T04:23:45;18.58;;;11.27;;
56005;SDS011;41888;44.696;10.522;2022-12-18T04:26:11;16.63;;;11.27;;
56005;SDS011;41888;44.696;10.522;2022-12-18T04:28:38;19.38;;;12.88;;
56005;SDS011;41888;44.696;10.522;2022-12-18T04:31:04;21.48;;;13.40;;
56005;SDS011;41888;44.696;10.522;2022-12-18T04:33:30;24.42;;;15.57;;
56005;SDS011;41888;44.696;10.522;2022-12-18T04:35:57;24.77;;;17.08;;
56005;SDS011;41888;44.696;10.522;2022-12-18T04:38:23;29.15;;;17.70;;
56005;SDS011;41888;44.696;10.522;2022-12-18T04:40:49;29.20;;;17.52;;
56005;SDS011;41888;44.696;10.522;2022-12-18T04:43:15;28.70;;;17.08;;
56005;SDS011;41888;44.696;10.522;2022-12-18T04:45:42;32.92;;;18.00;;
56005;SDS011;41888;44.696;10.522;2022-12-18T04:48:08;30.60;;;18.20;;
56005;SDS011;41888;44.696;10.522;2022-12-18T04:50:34;32.25;;;18.10;;
56005;SDS011;41888;44.696;10.522;2022-12-18T04:53:00;29.30;;;17.30;;
56005;SDS011;41888;44.696;10.522;2022-12-18T04:55:27;30.92;;;18.70;;
56005;SDS011;41888;44.696;10.522;2022-12-18T04:57:53;29.33;;;17.55;;
56005;SDS011;41888;44.696;10.522;2022-12-18T05:00:19;32.42;;;18.15;;
56005;SDS011;41888;44.696;10.522;2022-12-18T05:02:46;30.38;;;18.65;;
56005;SDS011;41888;44.696;10.522;2022-12-18T05:05:13;34.05;;;20.02;;
56005;SDS011;41888;44.696;10.522;2022-12-18T05:07:39;34.33;;;20.40;;
56005;SDS011;41888;44.696;10.522;2022-12-18T05:10:05;32.50;;;19.95;;
56005;SDS011;41888;44.696;10.522;2022-12-18T05:12:32;34.42;;;19.98;;
56005;SDS011;41888;44.696;10.522;2022-12-18T05:14:58;32.83;;;19.90;;
56005;SDS011;41888;44.696;10.522;2022-12-18T05:17:24;32.22;;;19.88;;
56005;SDS011;41888;44.696;10.522;2022-12-18T05:19:50;35.88;;;21.00;;
56005;SDS011;41888;44.696;10.522;2022-12-18T05:22:16;28.05;;;18.23;;
56005;SDS011;41888;44.696;10.522;2022-12-18T05:24:43;32.03;;;18.75;;
56005;SDS011;41888;44.696;10.522;2022-12-18T05:27:09;33.08;;;19.10;;
56005;SDS011;41888;44.696;10.522;2022-12-18T05:29:35;32.35;;;19.45;;
56005;SDS011;41888;44.696;10.522;2022-12-18T05:32:01;35.03;;;18.45;;
56005;SDS011;41888;44.696;10.522;2022-12-18T05:34:27;32.63;;;18.85;;
56005;SDS011;41888;44.696;10.522;2022-12-18T05:36:53;34.55;;;19.20;;
56005;SDS011;41888;44.696;10.522;2022-12-18T05:39:20;34.50;;;19.88;;
56005;SDS011;41888;44.696;10.522;2022-12-18T05:41:46;35.28;;;18.55;;
56005;SDS011;41888;44.696;10.522;2022-12-18T05:44:12;31.45;;;17.52;;
56005;SDS011;41888;44.696;10.522;2022-12-18T05:46:38;31.13;;;17.13;;
56005;SDS011;41888;44.696;10.522;2022-12-18T05:49:04;27.08;;;17.30;;
56005;SDS011;41888;44.696;10.522;2022-12-18T05:51:30;28.67;;;17.95;;
56005;SDS011;41888;44.696;10.522;2022-12-18T05:53:56;33.70;;;18.75;;
56005;SDS011;41888;44.696;10.522;2022-12-18T05:56:23;27.70;;;18.88;;
56005;SDS011;41888;44.696;10.522;2022-12-18T05:58:52;29.65;;;17.25;;
56005;SDS011;41888;44.696;10.522;2022-12-18T06:01:21;33.53;;;18.50;;
56005;SDS011;41888;44.696;10.522;2022-12-18T06:03:49;27.63;;;15.65;;
56005;SDS011;41888;44.696;10.522;2022-12-18T06:06:18;25.42;;;15.27;;
56005;SDS011;41888;44.696;10.522;2022-12-18T06:08:47;27.23;;;16.83;;
56005;SDS011;41888;44.696;10.522;2022-12-18T06:11:15;28.55;;;16.00;;
56005;SDS011;41888;44.696;10.522;2022-12-18T06:13:44;25.38;;;15.95;;
56005;SDS011;41888;44.696;10.522;2022-12-18T06:16:11;27.35;;;15.85;;
56005;SDS011;41888;44.696;10.522;2022-12-18T06:18:37;24.33;;;14.55;;
56005;SDS011;41888;44.696;10.522;2022-12-18T06:21:04;29.70;;;15.73;;
56005;SDS011;41888;44.696;10.522;2022-12-18T06:23:30;24.15;;;15.23;;
56005;SDS011;41888;44.696;10.522;2022-12-18T06:25:56;23.90;;;15.32;;
56005;SDS011;41888;44.696;10.522;2022-12-18T06:28:22;27.17;;;17.10;;
56005;SDS011;41888;44.696;10.522;2022-12-18T06:30:48;29.73;;;17.20;;
56005;SDS011;41888;44.696;10.522;2022-12-18T06:33:15;27.95;;;16.63;;
56005;SDS011;41888;44.696;10.522;2022-12-18T06:35:42;26.58;;;15.57;;
56005;SDS011;41888;44.696;10.522;2022-12-18T06:38:08;26.65;;;16.15;;
56005;SDS011;41888;44.696;10.522;2022-12-18T06:40:34;29.30;;;16.48;;
56005;SDS011;41888;44.696;10.522;2022-12-18T06:43:03;27.25;;;15.75;;
56005;SDS011;41888;44.696;10.522;2022-12-18T06:45:30;25.27;;;15.20;;
56005;SDS011;41888;44.696;10.522;2022-12-18T06:47:56;29.65;;;17.20;;
56005;SDS011;41888;44.696;10.522;2022-12-18T06:50:22;33.00;;;17.92;;
56005;SDS011;41888;44.696;10.522;2022-12-18T06:52:48;31.15;;;17.15;;
56005;SDS011;41888;44.696;10.522;2022-12-18T06:55:14;26.20;;;15.30;;
56005;SDS011;41888;44.696;10.522;2022-12-18T06:57:41;35.63;;;21.20;;
56005;SDS011;41888;44.696;10.522;2022-12-18T07:00:07;34.53;;;20.90;;
56005;SDS011;41888;44.696;10.522;2022-12-18T07:02:34;34.33;;;20.08;;
56005;SDS011;41888;44.696;10.522;2022-12-18T07:05:00;37.95;;;22.02;;
56005;SDS011;41888;44.696;10.522;2022-12-18T07:07:26;35.40;;;21.88;;
56005;SDS011;41888;44.696;10.522;2022-12-18T07:09:53;37.72;;;22.15;;
56005;SDS011;41888;44.696;10.522;2022-12-18T07:12:19;38.00;;;22.33;;
56005;SDS011;41888;44.696;10.522;2022-12-18T07:14:45;34.13;;;21.17;;
56005;SDS011;41888;44.696;10.522;2022-12-18T07:17:11;35.45;;;20.58;;
56005;SDS011;41888;44.696;10.522;2022-12-18T07:19:37;33.03;;;20.40;;
56005;SDS011;41888;44.696;10.522;2022-12-18T07:22:04;35.42;;;20.42;;
56005;SDS011;41888;44.696;10.522;2022-12-18T07:24:30;37.60;;;21.05;;
56005;SDS011;41888;44.696;10.522;2022-12-18T07:26:57;41.28;;;21.80;;
56005;SDS011;41888;44.696;10.522;2022-12-18T07:29:24;34.88;;;20.95;;
56005;SDS011;41888;44.696;10.522;2022-12-18T07:31:50;34.83;;;18.83;;
56005;SDS011;41888;44.696;10.522;2022-12-18T07:34:16;30.42;;;18.92;;
56005;SDS011;41888;44.696;10.522;2022-12-18T07:36:42;31.95;;;18.75;;
56005;SDS011;41888;44.696;10.522;2022-12-18T07:39:10;29.88;;;18.58;;
56005;SDS011;41888;44.696;10.522;2022-12-18T07:41:36;32.05;;;18.45;;
56005;SDS011;41888;44.696;10.522;2022-12-18T07:44:03;35.45;;;19.00;;
56005;SDS011;41888;44.696;10.522;2022-12-18T07:46:29;29.85;;;17.52;;
56005;SDS011;41888;44.696;10.522;2022-12-18T07:48:55;27.77;;;16.92;;
56005;SDS011;41888;44.696;10.522;2022-12-18T07:51:22;30.48;;;17.83;;
56005;SDS011;41888;44.696;10.522;2022-12-18T07:53:48;30.42;;;18.17;;
56005;SDS011;41888;44.696;10.522;2022-12-18T07:56:14;26.77;;;17.13;;
56005;SDS011;41888;44.696;10.522;2022-12-18T07:58:40;27.35;;;18.30;;
56005;SDS011;41888;44.696;10.522;2022-12-18T08:01:07;30.98;;;16.98;;
56005;SDS011;41888;44.696;10.522;2022-12-18T08:03:35;28.95;;;17.95;;
56005;SDS011;41888;44.696;10.522;2022-12-18T08:06:03;28.30;;;17.65;;
56005;SDS011;41888;44.696;10.522;2022-12-18T08:08:31;28.30;;;18.38;;
56005;SDS011;41888;44.696;10.522;2022-12-18T08:10:59;32.70;;;18.50;;
56005;SDS011;41888;44.696;10.522;2022-12-18T08:13:26;28.63;;;17.33;;
56005;SDS011;41888;44.696;10.522;2022-12-18T08:15:59;26.48;;;17.00;;
56005;SDS011;41888;44.696;10.522;2022-12-18T08:18:27;34.17;;;20.10;;
56005;SDS011;41888;44.696;10.522;2022-12-18T08:20:54;33.10;;;19.52;;
56005;SDS011;41888;44.696;10.522;2022-12-18T08:23:20;29.92;;;17.13;;
56005;SDS011;41888;44.696;10.522;2022-12-18T08:25:46;36.60;;;19.13;;
56005;SDS011;41888;44.696;10.522;2022-12-18T08:28:16;35.10;;;19.95;;
56005;SDS011;41888;44.696;10.522;2022-12-18T08:30:42;34.70;;;19.70;;
56005;SDS011;41888;44.696;10.522;2022-12-18T08:33:08;30.85;;;17.40;;
56005;SDS011;41888;44.696;10.522;2022-12-18T08:35:35;34.15;;;20.08;;
56005;SDS011;41888;44.696;10.522;2022-12-18T08:38:02;30.25;;;17.40;;
56005;SDS011;41888;44.696;10.522;2022-12-18T08:40:28;32.47;;;19.42;;
56005;SDS011;41888;44.696;10.522;2022-12-18T08:42:55;33.63;;;18.73;;
56005;SDS011;41888;44.696;10.522;2022-12-18T08:48:05;31.55;;;18.35;;
56005;SDS011;41888;44.696;10.522;2022-12-18T08:50:32;32.08;;;18.73;;
56005;SDS011;41888;44.696;10.522;2022-12-18T08:52:58;34.33;;;18.38;;
56005;SDS011;41888;44.696;10.522;2022-12-18T08:55:24;36.03;;;19.75;;
56005;SDS011;41888;44.696;10.522;2022-12-18T08:57:50;34.38;;;18.95;;
56005;SDS011;41888;44.696;10.522;2022-12-18T09:00:16;35.58;;;20.23;;
56005;SDS011;41888;44.696;10.522;2022-12-18T09:02:43;36.28;;;19.63;;
56005;SDS011;41888;44.696;10.522;2022-12-18T09:05:09;33.65;;;19.17;;
56005;SDS011;41888;44.696;10.522;2022-12-18T09:07:35;34.72;;;19.70;;
56005;SDS011;41888;44.696;10.522;2022-12-18T09:10:02;31.70;;;17.23;;
56005;SDS011;41888;44.696;10.522;2022-12-18T09:12:28;32.85;;;19.20;;
56005;SDS011;41888;44.696;10.522;2022-12-18T09:14:54;31.33;;;17.73;;
56005;SDS011;41888;44.696;10.522;2022-12-18T09:17:21;35.72;;;18.77;;
56005;SDS011;41888;44.696;10.522;2022-12-18T09:19:48;35.75;;;18.77;;
56005;SDS011;41888;44.696;10.522;2022-12-18T09:22:14;37.58;;;19.33;;
56005;SDS011;41888;44.696;10.522;2022-12-18T09:24:40;36.58;;;18.55;;
56005;SDS011;41888;44.696;10.522;2022-12-18T09:27:06;35.90;;;19.80;;
56005;SDS011;41888;44.696;10.522;2022-12-18T09:29:33;35.53;;;18.48;;
56005;SDS011;41888;44.696;10.522;2022-12-18T09:31:59;40.78;;;20.30;;
56005;SDS011;41888;44.696;10.522;2022-12-18T09:34:25;36.95;;;19.83;;
56005;SDS011;41888;44.696;10.522;2022-12-18T09:36:51;40.20;;;19.88;;
56005;SDS011;41888;44.696;10.522;2022-12-18T09:39:17;37.55;;;20.42;;
56005;SDS011;41888;44.696;10.522;2022-12-18T09:41:48;34.80;;;18.60;;
56005;SDS011;41888;44.696;10.522;2022-12-18T09:49:53;37.00;;;20.65;;
56005;SDS011;41888;44.696;10.522;2022-12-18T09:55:39;35.38;;;19.90;;
56005;SDS011;41888;44.696;10.522;2022-12-18T09:57:59;44.22;;;20.95;;
56005;SDS011;41888;44.696;10.522;2022-12-18T10:00:30;40.75;;;20.77;;
56005;SDS011;41888;44.696;10.522;2022-12-18T10:02:59;37.67;;;20.75;;
56005;SDS011;41888;44.696;10.522;2022-12-18T10:11:12;36.25;;;19.55;;
56005;SDS011;41888;44.696;10.522;2022-12-18T10:16:26;36.45;;;20.50;;
56005;SDS011;41888;44.696;10.522;2022-12-18T10:24:40;36.20;;;19.88;;
56005;SDS011;41888;44.696;10.522;2022-12-18T10:27:16;38.15;;;20.17;;
56005;SDS011;41888;44.696;10.522;2022-12-18T10:29:47;34.78;;;19.95;;
56005;SDS011;41888;44.696;10.522;2022-12-18T10:32:17;40.30;;;21.45;;
56005;SDS011;41888;44.696;10.522;2022-12-18T10:34:49;36.17;;;19.70;;
56005;SDS011;41888;44.696;10.522;2022-12-18T10:37:17;35.08;;;17.98;;
56005;SDS011;41888;44.696;10.522;2022-12-18T10:39:46;34.17;;;18.90;;
56005;SDS011;41888;44.696;10.522;2022-12-18T10:42:32;35.10;;;20.85;;
56005;SDS011;41888;44.696;10.522;2022-12-18T10:45:09;33.00;;;18.83;;
56005;SDS011;41888;44.696;10.522;2022-12-18T10:47:56;35.75;;;19.67;;
56005;SDS011;41888;44.696;10.522;2022-12-18T10:50:27;34.17;;;19.25;;
56005;SDS011;41888;44.696;10.522;2022-12-18T10:52:57;33.73;;;19.80;;
56005;SDS011;41888;44.696;10.522;2022-12-18T10:55:27;34.25;;;20.60;;
56005;SDS011;41888;44.696;10.522;2022-12-18T11:01:01;33.92;;;19.20;;
56005;SDS011;41888;44.696;10.522;2022-12-18T11:03:36;36.42;;;20.80;;
56005;SDS011;41888;44.696;10.522;2022-12-18T11:06:24;31.08;;;19.42;;
56005;SDS011;41888;44.696;10.522;2022-12-18T11:09:00;35.10;;;20.17;;
56005;SDS011;41888;44.696;10.522;2022-12-18T11:11:29;30.98;;;17.40;;
56005;SDS011;41888;44.696;10.522;2022-12-18T11:14:01;33.45;;;18.42;;
56005;SDS011;41888;44.696;10.522;2022-12-18T11:16:28;30.77;;;19.35;;
56005;SDS011;41888;44.696;10.522;2022-12-18T11:22:23;33.38;;;20.30;;
56005;SDS011;41888;44.696;10.522;2022-12-18T11:25:00;34.58;;;21.17;;
56005;SDS011;41888;44.696;10.522;2022-12-18T11:27:47;33.38;;;19.42;;
56005;SDS011;41888;44.696;10.522;2022-12-18T11:38:38;38.50;;;20.65;;
56005;SDS011;41888;44.696;10.522;2022-12-18T11:41:29;34.65;;;20.38;;
56005;SDS011;41888;44.696;10.522;2022-12-18T11:50:01;30.23;;;17.80;;
56005;SDS011;41888;44.696;10.522;2022-12-18T11:52:36;30.15;;;20.13;;
56005;SDS011;41888;44.696;10.522;2022-12-18T11:55:10;33.13;;;19.83;;
56005;SDS011;41888;44.696;10.522;2022-12-18T12:00:24;32.10;;;19.83;;
56005;SDS011;41888;44.696;10.522;2022-12-18T12:08:35;32.10;;;19.27;;
56005;SDS011;41888;44.696;10.522;2022-12-18T12:17:03;36.30;;;21.73;;
56005;SDS011;41888;44.696;10.522;2022-12-18T12:27:38;34.67;;;19.17;;
56005;SDS011;41888;44.696;10.522;2022-12-18T12:40:39;43.65;;;22.23;;
56005;SDS011;41888;44.696;10.522;2022-12-18T12:46:07;35.85;;;20.65;;
56005;SDS011;41888;44.696;10.522;2022-12-18T12:48:55;36.10;;;21.63;;
56005;SDS011;41888;44.696;10.522;2022-12-18T12:51:37;35.00;;;19.40;;
56005;SDS011;41888;44.696;10.522;2022-12-18T12:54:10;29.95;;;18.33;;
56005;SDS011;41888;44.696;10.522;2022-12-18T12:56:46;34.35;;;19.63;;
56005;SDS011;41888;44.696;10.522;2022-12-18T13:02:31;33.35;;;19.35;;
56005;SDS011;41888;44.696;10.522;2022-12-18T13:07:57;35.10;;;19.35;;
56005;SDS011;41888;44.696;10.522;2022-12-18T13:13:09;39.10;;;21.50;;
56005;SDS011;41888;44.696;10.522;2022-12-18T13:18:29;38.70;;;20.33;;
56005;SDS011;41888;44.696;10.522;2022-12-18T13:31:15;40.92;;;21.13;;
56005;SDS011;41888;44.696;10.522;2022-12-18T13:36:35;39.40;;;20.02;;
56005;SDS011;41888;44.696;10.522;2022-12-18T13:41:43;38.38;;;21.88;;
56005;SDS011;41888;44.696;10.522;2022-12-18T13:44:12;40.05;;;22.10;;
56005;SDS011;41888;44.696;10.522;2022-12-18T13:46:56;40.00;;;21.40;;
56005;SDS011;41888;44.696;10.522;2022-12-18T13:49:55;42.65;;;23.65;;
56005;SDS011;41888;44.696;10.522;2022-12-18T13:52:16;44.10;;;23.73;;
56005;SDS011;41888;44.696;10.522;2022-12-18T13:54:47;47.20;;;24.40;;
56005;SDS011;41888;44.696;10.522;2022-12-18T13:57:30;45.75;;;24.55;;
56005;SDS011;41888;44.696;10.522;2022-12-18T13:59:59;42.28;;;22.58;;
56005;SDS011;41888;44.696;10.522;2022-12-18T14:02:47;41.72;;;22.70;;
56005;SDS011;41888;44.696;10.522;2022-12-18T14:05:31;40.13;;;21.67;;
56005;SDS011;41888;44.696;10.522;2022-12-18T14:08:00;44.22;;;23.10;;
56005;SDS011;41888;44.696;10.522;2022-12-18T14:10:31;43.90;;;23.20;;
56005;SDS011;41888;44.696;10.522;2022-12-18T14:12:58;41.22;;;23.00;;
56005;SDS011;41888;44.696;10.522;2022-12-18T14:20:44;43.78;;;22.95;;
56005;SDS011;41888;44.696;10.522;2022-12-18T14:28:48;44.80;;;22.63;;
56005;SDS011;41888;44.696;10.522;2022-12-18T14:31:21;49.13;;;25.73;;
56005;SDS011;41888;44.696;10.522;2022-12-18T14:33:52;44.88;;;23.10;;
56005;SDS011;41888;44.696;10.522;2022-12-18T14:36:23;50.55;;;24.23;;
56005;SDS011;41888;44.696;10.522;2022-12-18T14:38:54;39.40;;;22.63;;
56005;SDS011;41888;44.696;10.522;2022-12-18T14:41:21;50.90;;;23.77;;
56005;SDS011;41888;44.696;10.522;2022-12-18T14:43:49;45.53;;;22.67;;
56005;SDS011;41888;44.696;10.522;2022-12-18T14:46:30;44.25;;;21.58;;
56005;SDS011;41888;44.696;10.522;2022-12-18T14:49:04;44.30;;;24.05;;
56005;SDS011;41888;44.696;10.522;2022-12-18T14:51:50;48.72;;;24.40;;
56005;SDS011;41888;44.696;10.522;2022-12-18T14:54:40;40.65;;;23.05;;
56005;SDS011;41888;44.696;10.522;2022-12-18T14:57:35;45.90;;;22.80;;
56005;SDS011;41888;44.696;10.522;2022-12-18T15:00:06;48.28;;;25.10;;
56005;SDS011;41888;44.696;10.522;2022-12-18T15:02:40;47.15;;;23.35;;
56005;SDS011;41888;44.696;10.522;2022-12-18T15:07:43;46.00;;;23.35;;
56005;SDS011;41888;44.696;10.522;2022-12-18T15:12:43;49.60;;;23.85;;
56005;SDS011;41888;44.696;10.522;2022-12-18T15:15:44;44.75;;;24.15;;
56005;SDS011;41888;44.696;10.522;2022-12-18T15:21:09;45.90;;;24.38;;
56005;SDS011;41888;44.696;10.522;2022-12-18T15:23:49;50.33;;;24.35;;
56005;SDS011;41888;44.696;10.522;2022-12-18T15:26:18;54.00;;;24.08;;
56005;SDS011;41888;44.696;10.522;2022-12-18T15:28:53;46.17;;;23.35;;
56005;SDS011;41888;44.696;10.522;2022-12-18T15:31:22;45.67;;;24.10;;
56005;SDS011;41888;44.696;10.522;2022-12-18T15:34:13;47.58;;;23.85;;
56005;SDS011;41888;44.696;10.522;2022-12-18T15:36:45;53.03;;;24.58;;
56005;SDS011;41888;44.696;10.522;2022-12-18T15:39:12;52.95;;;27.15;;
56005;SDS011;41888;44.696;10.522;2022-12-18T15:41:38;47.92;;;22.45;;
56005;SDS011;41888;44.696;10.522;2022-12-18T15:44:23;48.90;;;25.35;;
56005;SDS011;41888;44.696;10.522;2022-12-18T15:46:50;46.88;;;22.85;;
56005;SDS011;41888;44.696;10.522;2022-12-18T15:49:16;48.72;;;24.40;;
56005;SDS011;41888;44.696;10.522;2022-12-18T15:51:43;45.55;;;22.65;;
56005;SDS011;41888;44.696;10.522;2022-12-18T15:54:11;43.35;;;24.15;;
56005;SDS011;41888;44.696;10.522;2022-12-18T15:56:41;47.58;;;23.98;;
56005;SDS011;41888;44.696;10.522;2022-12-18T15:59:25;51.20;;;22.85;;
56005;SDS011;41888;44.696;10.522;2022-12-18T16:01:52;41.85;;;22.55;;
56005;SDS011;41888;44.696;10.522;2022-12-18T16:04:19;49.75;;;23.38;;
56005;SDS011;41888;44.696;10.522;2022-12-18T16:06:47;42.78;;;22.13;;
56005;SDS011;41888;44.696;10.522;2022-12-18T16:09:13;46.97;;;23.23;;
56005;SDS011;41888;44.696;10.522;2022-12-18T16:11:41;43.15;;;21.33;;
56005;SDS011;41888;44.696;10.522;2022-12-18T16:14:18;46.88;;;21.83;;
56005;SDS011;41888;44.696;10.522;2022-12-18T16:16:47;44.40;;;23.00;;
56005;SDS011;41888;44.696;10.522;2022-12-18T16:19:15;39.05;;;21.33;;
56005;SDS011;41888;44.696;10.522;2022-12-18T16:21:41;41.42;;;20.17;;
56005;SDS011;41888;44.696;10.522;2022-12-18T16:24:17;45.53;;;22.55;;
56005;SDS011;41888;44.696;10.522;2022-12-18T16:26:47;38.40;;;20.65;;
56005;SDS011;41888;44.696;10.522;2022-12-18T16:29:13;47.95;;;21.10;;
56005;SDS011;41888;44.696;10.522;2022-12-18T16:31:40;41.85;;;22.20;;
56005;SDS011;41888;44.696;10.522;2022-12-18T16:34:39;44.22;;;22.77;;
56005;SDS011;41888;44.696;10.522;2022-12-18T16:37:00;46.33;;;22.05;;
56005;SDS011;41888;44.696;10.522;2022-12-18T16:39:28;49.35;;;22.95;;
56005;SDS011;41888;44.696;10.522;2022-12-18T16:41:55;50.78;;;22.95;;
56005;SDS011;41888;44.696;10.522;2022-12-18T16:44:22;46.92;;;22.42;;
56005;SDS011;41888;44.696;10.522;2022-12-18T16:46:48;46.40;;;22.83;;
56005;SDS011;41888;44.696;10.522;2022-12-18T16:49:14;38.72;;;21.27;;
56005;SDS011;41888;44.696;10.522;2022-12-18T16:51:42;41.83;;;21.25;;
56005;SDS011;41888;44.696;10.522;2022-12-18T16:54:10;47.38;;;22.98;;